Terminal Aerodrome Forecast
Issued by NWS

Home | Current Version | Previous Version | Text Only | Print | Product List | Glossary On
Versions: 1 2 3 4 5 6 7 8 9 10 11 12 13
000
FTUS44 KEPZ 271138
TAFLRU
TAF
KLRU 271138Z 2712/2812 13006KT P6SM VCSH BKN090 BKN250
     FM272200 09009KT P6SM VCTS SCT090CB BKN250
     FM280600 14006KT P6SM BKN120=

USA.gov is the U.S. government's official web portal to all federal, state and local government web resources and services.